Terminal Aerodrome Forecast
Issued by NWS

Home | Current Version | Previous Version | Text Only | Print | Product List | Glossary On
Versions: 1 2 3 4 5 6 7 8 9 10 11 12 13 14 15 16 17 18 19 20 21 22 23 24
000
FTUS44 KTSA 060209 AAB
TAFFYV
TAF AMD
KFYV 060209Z 0602/0624 00000KT P6SM SCT025 OVC080
      TEMPO 0602/0605 4SM -RA BR BKN025
     FM060500 VRB03KT 4SM -RA BR OVC015
     FM060700 35005KT 1SM BR OVC007
      TEMPO 0607/0611 1/2SM -DZ FG OVC002
     FM061400 35008KT P6SM OVC012
     FM061700 35012KT P6SM BKN020
     FM061900 35012KT P6SM BKN250=

USA.gov is the U.S. government's official web portal to all federal, state and local government web resources and services.